createdAt,value
2022-11-29T00:00:02.951Z,19.73
2022-11-29T00:02:58.145Z,19.72
2022-11-29T00:05:43.857Z,19.72
2022-11-29T00:08:29.563Z,19.71
2022-11-29T00:11:39.569Z,19.72
2022-11-29T00:14:26.133Z,19.71
2022-11-29T00:17:11.644Z,19.70
2022-11-29T00:19:56.928Z,19.71
2022-11-29T00:22:42.260Z,19.71
2022-11-29T00:25:28.036Z,19.71
2022-11-29T00:28:13.587Z,19.71
2022-11-29T00:30:58.903Z,19.70
2022-11-29T00:33:44.236Z,19.70
2022-11-29T00:36:29.755Z,19.70
2022-11-29T00:39:16.381Z,19.71
2022-11-29T00:42:01.997Z,19.71
2022-11-29T00:44:47.239Z,19.69
2022-11-29T00:47:32.464Z,19.70
2022-11-29T00:50:17.906Z,19.69
2022-11-29T00:53:03.232Z,19.69
2022-11-29T00:55:49.848Z,19.70
2022-11-29T00:58:36.575Z,19.68
2022-11-29T01:01:21.922Z,19.69
2022-11-29T01:04:07.192Z,19.68
2022-11-29T01:06:53.319Z,19.68
2022-11-29T01:09:38.912Z,19.67
2022-11-29T01:12:24.101Z,19.67
2022-11-29T01:15:10.346Z,19.67
2022-11-29T01:17:55.912Z,19.67
2022-11-29T01:20:41.236Z,19.67
2022-11-29T01:23:27.475Z,19.66
2022-11-29T01:26:18.489Z,19.66
2022-11-29T01:29:03.884Z,19.67
2022-11-29T01:31:49.208Z,19.67
2022-11-29T01:34:34.485Z,19.66
2022-11-29T01:37:19.640Z,19.65
2022-11-29T01:40:05.976Z,19.66
2022-11-29T01:42:51.434Z,19.66
2022-11-29T01:45:38.549Z,19.65
2022-11-29T01:48:30.767Z,19.65
2022-11-29T01:51:16.580Z,19.67
2022-11-29T01:54:02.654Z,19.66
2022-11-29T01:56:51.452Z,19.65
2022-11-29T01:59:46.113Z,19.65
2022-11-29T02:02:36.794Z,19.65
2022-11-29T02:05:23.050Z,19.64
2022-11-29T02:08:11.213Z,19.65
2022-11-29T02:11:19.304Z,19.65
2022-11-29T02:14:40.135Z,19.65
2022-11-29T02:18:03.276Z,19.64
2022-11-29T02:21:02.986Z,19.63
2022-11-29T02:24:30.318Z,19.63
2022-11-29T02:27:44.867Z,19.63
2022-11-29T02:30:48.990Z,19.64
2022-11-29T02:33:58.886Z,19.63
2022-11-29T02:37:15.123Z,19.63
2022-11-29T02:40:35.337Z,19.63
2022-11-29T02:43:29.901Z,19.64
2022-11-29T02:46:55.404Z,19.63
2022-11-29T02:49:59.656Z,19.62
2022-11-29T02:52:59.911Z,19.62
2022-11-29T02:55:55.712Z,19.62
2022-11-29T02:58:53.147Z,19.62
2022-11-29T03:02:12.617Z,19.63
2022-11-29T03:05:06.622Z,19.61
2022-11-29T03:08:12.548Z,19.62
2022-11-29T03:11:20.508Z,19.62
2022-11-29T03:14:28.531Z,19.62
2022-11-29T03:17:39.663Z,19.62
2022-11-29T03:21:02.517Z,19.62
2022-11-29T03:23:52.803Z,19.62
2022-11-29T03:27:06.568Z,19.59
2022-11-29T03:30:05.674Z,19.61
2022-11-29T03:33:00.271Z,19.61
2022-11-29T03:36:09.505Z,19.61
2022-11-29T03:39:02.819Z,19.62
2022-11-29T03:42:05.931Z,19.61
2022-11-29T03:45:06.715Z,19.61
2022-11-29T03:48:18.877Z,19.62
2022-11-29T03:51:23.751Z,19.61
2022-11-29T03:54:17.911Z,19.62
2022-11-29T03:57:03.563Z,19.63
2022-11-29T04:00:09.433Z,19.61
2022-11-29T04:03:31.728Z,19.62
2022-11-29T04:06:39.196Z,19.64
2022-11-29T04:09:43.643Z,19.63
2022-11-29T04:13:06.501Z,19.61
2022-11-29T04:16:19.766Z,19.61
2022-11-29T04:19:34.735Z,19.61
2022-11-29T04:22:57.331Z,19.60
2022-11-29T04:26:17.033Z,19.61
2022-11-29T04:29:02.484Z,19.61
2022-11-29T04:32:16.834Z,19.61
2022-11-29T04:35:02.371Z,19.60
2022-11-29T04:38:29.764Z,19.61
2022-11-29T04:41:44.434Z,19.60
2022-11-29T04:44:49.287Z,19.60
2022-11-29T04:47:47.713Z,19.60
2022-11-29T04:50:46.026Z,19.60
2022-11-29T04:53:31.444Z,19.60
2022-11-29T04:57:02.984Z,19.60
2022-11-29T05:00:09.998Z,19.58
2022-11-29T05:03:04.387Z,19.64
2022-11-29T05:05:57.527Z,19.67
2022-11-29T05:09:09.034Z,19.70
2022-11-29T05:12:14.868Z,19.75
2022-11-29T05:15:25.103Z,19.79
2022-11-29T05:18:13.489Z,19.79
2022-11-29T05:21:09.382Z,19.77
2022-11-29T05:24:08.275Z,19.76
2022-11-29T05:27:18.672Z,19.77
2022-11-29T05:30:15.344Z,19.80
2022-11-29T05:33:58.172Z,19.83
2022-11-29T05:37:10.827Z,19.86
2022-11-29T05:40:14.436Z,19.89
2022-11-29T05:43:15.337Z,19.90
2022-11-29T05:46:31.099Z,19.92
2022-11-29T05:49:52.294Z,19.93
2022-11-29T05:53:02.143Z,19.94
2022-11-29T05:56:10.416Z,19.96
2022-11-29T05:59:22.367Z,19.97
2022-11-29T06:02:30.562Z,19.98
2022-11-29T06:05:58.413Z,20.01
2022-11-29T06:08:59.377Z,19.99
2022-11-29T06:11:49.246Z,19.95
2022-11-29T06:14:53.290Z,19.91
2022-11-29T06:17:55.174Z,19.91
2022-11-29T06:20:43.341Z,19.88
2022-11-29T06:24:02.784Z,19.89
2022-11-29T06:27:11.158Z,19.87
2022-11-29T06:30:06.910Z,19.84
2022-11-29T06:33:03.571Z,19.83
2022-11-29T06:36:07.533Z,19.84
2022-11-29T06:38:52.837Z,19.87
2022-11-29T06:41:38.187Z,19.83
2022-11-29T06:44:23.601Z,19.81
2022-11-29T06:47:09.015Z,19.82
2022-11-29T06:50:13.405Z,19.80
2022-11-29T06:53:20.551Z,19.79
2022-11-29T06:56:36.677Z,19.77
2022-11-29T06:59:39.080Z,19.77
2022-11-29T07:02:57.182Z,19.76
2022-11-29T07:05:43.032Z,19.76
2022-11-29T07:08:28.816Z,19.75
2022-11-29T07:11:15.163Z,19.74
2022-11-29T07:14:00.704Z,19.73
2022-11-29T07:16:57.020Z,19.72
2022-11-29T07:20:08.136Z,19.72
2022-11-29T07:23:31.032Z,19.72
2022-11-29T07:26:41.541Z,19.71
2022-11-29T07:29:35.953Z,19.69
2022-11-29T07:32:58.768Z,19.68
2022-11-29T07:35:53.713Z,19.68
2022-11-29T07:39:09.756Z,19.67
2022-11-29T07:42:16.465Z,19.65
2022-11-29T07:45:13.943Z,19.64
2022-11-29T07:48:00.091Z,19.65
2022-11-29T07:50:45.896Z,19.64
2022-11-29T07:53:31.572Z,19.63
2022-11-29T07:56:16.803Z,19.63
2022-11-29T07:59:02.704Z,19.64
2022-11-29T08:01:47.914Z,19.64
2022-11-29T08:04:33.127Z,19.63
2022-11-29T08:07:18.459Z,19.63
2022-11-29T08:10:05.793Z,19.63
2022-11-29T08:12:51.819Z,19.63
2022-11-29T08:15:37.430Z,19.63
2022-11-29T08:18:22.573Z,19.63
2022-11-29T08:21:08.160Z,19.63
2022-11-29T08:23:53.666Z,19.62
2022-11-29T08:26:39.033Z,19.62
2022-11-29T08:29:25.258Z,19.61
2022-11-29T08:32:10.833Z,19.61
2022-11-29T08:34:56.325Z,19.61
2022-11-29T08:37:41.508Z,19.62
2022-11-29T08:40:26.688Z,19.62
2022-11-29T08:43:11.964Z,19.60
2022-11-29T08:45:58.103Z,19.60
2022-11-29T08:48:43.661Z,19.59
2022-11-29T08:51:29.036Z,19.60
2022-11-29T08:54:14.265Z,19.59
2022-11-29T08:57:31.423Z,19.59
2022-11-29T09:00:07.369Z,19.60
2022-11-29T09:02:52.664Z,19.58
2022-11-29T09:05:38.145Z,19.59
2022-11-29T09:08:23.452Z,19.59
2022-11-29T09:11:13.267Z,19.59
2022-11-29T09:14:01.460Z,19.57
2022-11-29T09:16:47.087Z,19.58
2022-11-29T09:19:32.214Z,19.57
2022-11-29T09:22:17.607Z,19.57
2022-11-29T09:25:02.924Z,19.57
2022-11-29T09:27:48.173Z,19.57
2022-11-29T09:30:35.061Z,19.57
2022-11-29T09:33:20.550Z,19.57
2022-11-29T09:36:07.644Z,19.55
2022-11-29T09:38:53.143Z,19.56
2022-11-29T09:41:45.576Z,19.56
2022-11-29T09:44:52.084Z,19.56
2022-11-29T09:47:57.908Z,19.55
2022-11-29T09:51:02.044Z,19.55
2022-11-29T09:54:15.060Z,19.56
2022-11-29T09:57:10.333Z,19.55
2022-11-29T10:00:02.124Z,19.55
2022-11-29T10:02:57.025Z,19.54
2022-11-29T10:05:50.913Z,19.52
2022-11-29T10:08:42.622Z,19.55
2022-11-29T10:11:50.383Z,19.55
2022-11-29T10:14:50.572Z,19.54
2022-11-29T10:17:45.636Z,19.55
2022-11-29T10:20:39.679Z,19.53
2022-11-29T10:23:35.796Z,19.55
2022-11-29T10:26:23.038Z,19.55
2022-11-29T10:29:15.390Z,19.55
2022-11-29T10:32:10.062Z,19.55
2022-11-29T10:34:58.638Z,19.55
2022-11-29T10:38:01.401Z,19.54
2022-11-29T10:40:54.349Z,19.54
2022-11-29T10:43:39.532Z,19.53
2022-11-29T10:46:30.868Z,19.52
2022-11-29T10:49:19.304Z,19.53
2022-11-29T10:52:05.555Z,19.53
2022-11-29T10:54:56.651Z,19.54
2022-11-29T10:58:13.060Z,19.53
2022-11-29T11:01:08.381Z,19.53
2022-11-29T11:03:55.607Z,19.55
2022-11-29T11:06:52.480Z,19.52
2022-11-29T11:09:42.529Z,19.53
2022-11-29T11:12:30.979Z,19.52
2022-11-29T11:15:30.883Z,19.53
2022-11-29T11:18:25.538Z,19.54
2022-11-29T11:21:13.375Z,19.54
2022-11-29T11:24:02.730Z,19.53
2022-11-29T11:26:48.273Z,19.53
2022-11-29T11:29:43.951Z,19.52
2022-11-29T11:32:29.444Z,19.53
2022-11-29T11:35:23.695Z,19.53
2022-11-29T11:38:17.549Z,19.53
2022-11-29T11:41:04.788Z,19.53
2022-11-29T11:43:51.791Z,19.53
2022-11-29T11:46:49.318Z,19.52
2022-11-29T11:49:48.784Z,19.52
2022-11-29T11:52:43.831Z,19.52
2022-11-29T11:55:43.240Z,19.51
2022-11-29T11:58:31.295Z,19.51
2022-11-29T12:01:26.023Z,19.52
2022-11-29T12:04:14.944Z,19.52
2022-11-29T12:07:03.132Z,19.51
2022-11-29T12:09:55.704Z,19.51
2022-11-29T12:12:42.899Z,19.50
2022-11-29T12:15:35.562Z,19.50
2022-11-29T12:18:30.478Z,19.50
2022-11-29T12:21:22.687Z,19.50
2022-11-29T12:24:32.955Z,19.52
2022-11-29T12:27:18.527Z,19.52
2022-11-29T12:30:14.339Z,19.53
2022-11-29T12:33:21.869Z,19.57
2022-11-29T12:36:20.016Z,19.59
2022-11-29T12:39:30.134Z,19.65
2022-11-29T12:42:23.642Z,19.67
2022-11-29T12:45:18.230Z,19.71
2022-11-29T12:48:27.368Z,19.72
2022-11-29T12:51:15.854Z,19.77
2022-11-29T12:54:26.527Z,19.82
2022-11-29T12:57:49.543Z,19.86
2022-11-29T13:00:46.575Z,19.89
2022-11-29T13:03:44.121Z,19.94
2022-11-29T13:06:47.861Z,19.98
2022-11-29T13:09:39.665Z,20.03
2022-11-29T13:12:45.092Z,20.06
2022-11-29T13:15:46.531Z,20.10
2022-11-29T13:18:54.456Z,20.12
2022-11-29T13:22:04.778Z,20.16
2022-11-29T13:25:01.969Z,20.20
2022-11-29T13:28:22.621Z,20.17
2022-11-29T13:31:14.776Z,20.19
2022-11-29T13:34:30.042Z,20.22
2022-11-29T13:37:27.235Z,20.22
2022-11-29T13:40:34.810Z,20.21
2022-11-29T13:43:41.405Z,20.21
2022-11-29T13:46:41.590Z,20.19
2022-11-29T13:50:02.733Z,20.18
2022-11-29T13:52:48.335Z,20.15
2022-11-29T13:55:34.324Z,20.15
2022-11-29T13:58:28.747Z,20.13
2022-11-29T14:01:14.529Z,20.16
2022-11-29T14:04:22.732Z,20.17
2022-11-29T14:07:14.740Z,20.20
2022-11-29T14:10:07.052Z,20.21
2022-11-29T14:12:56.823Z,20.24
2022-11-29T14:15:42.906Z,20.25
2022-11-29T14:18:37.414Z,20.31
2022-11-29T14:21:22.771Z,20.32
2022-11-29T14:24:35.857Z,20.33
2022-11-29T14:27:21.323Z,20.33
2022-11-29T14:30:44.955Z,20.37
2022-11-29T14:33:49.173Z,20.39
2022-11-29T14:36:59.383Z,20.41
2022-11-29T14:39:48.350Z,20.46
2022-11-29T14:42:34.077Z,20.49
2022-11-29T14:45:37.697Z,20.52
2022-11-29T14:48:28.242Z,20.54
2022-11-29T14:51:18.802Z,20.52
2022-11-29T14:54:19.556Z,20.53
2022-11-29T14:57:42.805Z,20.57
2022-11-29T15:00:32.767Z,20.58
2022-11-29T15:03:28.597Z,20.62
2022-11-29T15:06:16.105Z,20.61
2022-11-29T15:09:15.550Z,20.59
2022-11-29T15:12:12.473Z,20.56
2022-11-29T15:15:07.552Z,20.59
2022-11-29T15:17:56.053Z,20.64
2022-11-29T15:21:03.532Z,20.67
2022-11-29T15:24:01.717Z,20.66
2022-11-29T15:27:02.074Z,20.65
2022-11-29T15:29:48.519Z,20.65
2022-11-29T15:32:34.391Z,20.65
2022-11-29T15:41:29.965Z,20.59
2022-11-29T15:44:22.413Z,20.58
2022-11-29T15:50:27.987Z,20.67
2022-11-29T15:53:20.276Z,20.68
2022-11-29T15:56:16.798Z,20.62
2022-11-29T15:59:09.584Z,20.61
2022-11-29T16:02:00.306Z,20.58
2022-11-29T16:04:47.532Z,20.57
2022-11-29T16:07:34.445Z,20.57
2022-11-29T16:10:23.377Z,20.57
2022-11-29T16:13:37.873Z,20.59
2022-11-29T16:16:27.673Z,20.59
2022-11-29T16:19:29.854Z,20.59
2022-11-29T16:22:25.010Z,20.57
2022-11-29T16:25:19.108Z,20.57
2022-11-29T16:28:06.254Z,20.57
2022-11-29T16:30:52.267Z,20.56
2022-11-29T16:33:38.389Z,20.54
2022-11-29T16:36:30.931Z,20.55
2022-11-29T16:39:23.124Z,20.55
2022-11-29T16:42:24.993Z,20.56
2022-11-29T16:45:35.513Z,20.57
2022-11-29T16:48:25.517Z,20.57
2022-11-29T16:51:13.449Z,20.54
2022-11-29T16:54:18.882Z,20.51
2022-11-29T16:57:06.346Z,20.53
2022-11-29T16:59:52.272Z,20.53
2022-11-29T17:02:37.492Z,20.50
2022-11-29T17:05:22.733Z,20.50
2022-11-29T17:08:08.175Z,20.52
2022-11-29T17:10:53.387Z,20.52
2022-11-29T17:13:39.095Z,20.52
2022-11-29T17:16:25.102Z,20.51
2022-11-29T17:19:13.495Z,20.52
2022-11-29T17:21:59.306Z,20.50
2022-11-29T17:24:48.339Z,20.49
2022-11-29T17:27:34.124Z,20.46
2022-11-29T17:30:19.645Z,20.43
2022-11-29T17:33:05.192Z,20.44
2022-11-29T17:35:50.666Z,20.45
2022-11-29T17:38:37.267Z,20.42
2022-11-29T17:41:24.977Z,20.37
2022-11-29T17:44:11.618Z,20.34
2022-11-29T17:46:57.215Z,20.39
2022-11-29T17:49:42.702Z,20.38
2022-11-29T17:52:27.906Z,20.35
2022-11-29T17:55:13.911Z,20.32
2022-11-29T17:58:00.087Z,20.34
2022-11-29T18:00:45.456Z,20.35
2022-11-29T18:03:30.779Z,20.35
2022-11-29T18:06:19.518Z,20.33
2022-11-29T18:09:07.523Z,20.34
2022-11-29T18:11:53.107Z,20.34
2022-11-29T18:14:39.271Z,20.37
2022-11-29T18:17:24.841Z,20.42
2022-11-29T18:20:10.469Z,20.41
2022-11-29T18:22:56.255Z,20.45
2022-11-29T18:25:41.791Z,20.48
2022-11-29T18:28:29.515Z,20.48
2022-11-29T18:31:18.874Z,20.46
2022-11-29T18:34:07.192Z,20.44
2022-11-29T18:36:52.918Z,20.42
2022-11-29T18:39:38.536Z,20.40
2022-11-29T18:42:23.679Z,20.36
2022-11-29T18:45:09.147Z,20.31
2022-11-29T18:47:54.787Z,20.29
2022-11-29T18:50:40.045Z,20.27
2022-11-29T18:53:25.589Z,20.24
2022-11-29T18:56:17.003Z,20.23
2022-11-29T18:59:10.204Z,20.21
2022-11-29T19:01:56.688Z,20.20
2022-11-29T19:04:42.597Z,20.18
2022-11-29T19:07:29.413Z,20.18
2022-11-29T19:10:14.656Z,20.17
2022-11-29T19:13:00.352Z,20.15
2022-11-29T19:15:52.587Z,20.13
2022-11-29T19:18:38.272Z,20.13
2022-11-29T19:21:25.821Z,20.11
2022-11-29T19:24:14.722Z,20.10
2022-11-29T19:27:01.127Z,20.08
2022-11-29T19:29:47.028Z,20.07
2022-11-29T19:32:32.669Z,20.06
2022-11-29T19:35:18.011Z,20.04
2022-11-29T19:38:03.625Z,20.04
2022-11-29T19:40:49.357Z,20.02
2022-11-29T19:43:34.836Z,20.01
2022-11-29T19:46:23.169Z,20.00
2022-11-29T19:49:09.850Z,19.99
2022-11-29T19:51:55.639Z,19.99
2022-11-29T19:54:40.885Z,19.99
2022-11-29T19:57:26.235Z,19.97
2022-11-29T20:00:12.504Z,19.97
2022-11-29T20:02:58.353Z,19.96
2022-11-29T20:05:52.663Z,19.94
2022-11-29T20:08:38.225Z,19.94
2022-11-29T20:11:25.467Z,19.94
2022-11-29T20:14:12.163Z,19.93
2022-11-29T20:16:57.772Z,19.92
2022-11-29T20:19:43.290Z,19.91
2022-11-29T20:22:29.047Z,19.89
2022-11-29T20:25:14.716Z,19.88
2022-11-29T20:28:00.372Z,19.87
2022-11-29T20:30:46.671Z,19.85
2022-11-29T20:33:32.225Z,19.85
2022-11-29T20:36:28.283Z,19.84
2022-11-29T20:39:44.698Z,19.83
2022-11-29T20:42:44.604Z,19.83
2022-11-29T20:45:30.396Z,19.82
2022-11-29T20:48:23.264Z,19.83
2022-11-29T20:51:10.849Z,19.82
2022-11-29T20:53:56.209Z,19.80
2022-11-29T20:56:41.331Z,19.79
2022-11-29T20:59:26.615Z,19.78
2022-11-29T21:02:11.928Z,19.78
2022-11-29T21:04:57.120Z,19.78
2022-11-29T21:07:44.251Z,19.77
2022-11-29T21:10:29.731Z,19.75
2022-11-29T21:13:16.633Z,19.75
2022-11-29T21:16:02.813Z,19.72
2022-11-29T21:18:48.980Z,19.73
2022-11-29T21:21:44.692Z,19.73
2022-11-29T21:25:08.680Z,19.71
2022-11-29T21:27:55.107Z,19.70
2022-11-29T21:30:41.192Z,19.69
2022-11-29T21:33:27.373Z,19.67
2022-11-29T21:36:13.451Z,19.67
2022-11-29T21:39:03.618Z,19.65
2022-11-29T21:41:50.705Z,19.64
2022-11-29T21:44:36.044Z,19.63
2022-11-29T21:47:21.248Z,19.63
2022-11-29T21:50:07.271Z,19.61
2022-11-29T21:52:52.824Z,19.62
2022-11-29T21:55:38.192Z,19.62
2022-11-29T21:58:23.446Z,19.63
2022-11-29T22:01:14.837Z,19.62
2022-11-29T22:04:00.394Z,19.62
2022-11-29T22:06:46.917Z,19.62
2022-11-29T22:09:32.308Z,19.60
2022-11-29T22:12:33.761Z,19.61
2022-11-29T22:15:24.405Z,19.61
2022-11-29T22:18:10.711Z,19.60
2022-11-29T22:20:56.191Z,19.60
2022-11-29T22:23:41.409Z,19.61
2022-11-29T22:26:28.510Z,19.60
2022-11-29T22:29:15.036Z,19.61
2022-11-29T22:32:01.227Z,19.60
2022-11-29T22:34:46.531Z,19.60
2022-11-29T22:37:32.324Z,19.60
2022-11-29T22:40:17.709Z,19.60
2022-11-29T22:43:03.156Z,19.59
2022-11-29T22:45:48.313Z,19.59
2022-11-29T22:48:38.379Z,19.59
2022-11-29T22:51:32.494Z,19.58
2022-11-29T22:54:18.203Z,19.60
2022-11-29T22:57:03.545Z,19.59
2022-11-29T22:59:48.716Z,19.59
2022-11-29T23:02:34.105Z,19.59
2022-11-29T23:05:20.264Z,19.58
2022-11-29T23:08:05.698Z,19.59
2022-11-29T23:10:57.199Z,19.57
2022-11-29T23:13:43.479Z,19.57
2022-11-29T23:16:30.368Z,19.56
2022-11-29T23:19:16.254Z,19.56
2022-11-29T23:22:01.668Z,19.56
2022-11-29T23:24:47.073Z,19.56
2022-11-29T23:27:33.359Z,19.56
2022-11-29T23:30:18.745Z,19.56
2022-11-29T23:33:04.090Z,19.55
2022-11-29T23:35:50.597Z,19.56
2022-11-29T23:38:36.879Z,19.55
2022-11-29T23:41:22.396Z,19.57
2022-11-29T23:44:09.339Z,19.55
2022-11-29T23:46:54.542Z,19.56
2022-11-29T23:49:39.899Z,19.55
2022-11-29T23:52:25.063Z,19.53
2022-11-29T23:55:14.507Z,19.53
2022-11-29T23:58:03.368Z,19.55
